createdAt,value
2018-10-19T05:45:27.192Z,7.80
2018-10-19T05:47:56.088Z,5.03
2018-10-19T05:50:26.080Z,7.00
2018-10-19T05:52:55.387Z,5.57
2018-10-19T05:55:25.353Z,6.50
2018-10-19T05:57:54.570Z,5.33
2018-10-19T06:00:23.710Z,5.47
2018-10-19T06:02:52.609Z,5.33
2018-10-19T06:05:29.429Z,4.37
2018-10-19T06:08:03.757Z,5.43
2018-10-19T06:10:32.582Z,4.87
2018-10-19T06:13:01.531Z,5.20
2018-10-19T06:15:30.407Z,7.13
2018-10-19T06:17:59.562Z,7.30
2018-10-19T06:20:28.454Z,5.20
2018-10-19T06:22:57.624Z,4.97
2018-10-19T06:25:26.595Z,5.17
2018-10-19T06:27:57.748Z,4.80
2018-10-19T06:30:26.943Z,5.07
2018-10-19T06:32:55.874Z,5.17
2018-10-19T06:35:25.106Z,8.33
2018-10-19T06:37:54.367Z,8.67
2018-10-19T06:40:23.187Z,9.60
2018-10-19T06:42:52.165Z,8.10
2018-10-19T06:45:21.046Z,6.70
2018-10-19T06:47:50.029Z,5.90
2018-10-19T06:50:19.231Z,4.90
2018-10-19T06:52:48.367Z,4.97
2018-10-19T06:55:19.059Z,4.80
2018-10-19T06:57:51.532Z,5.43
2018-10-19T07:00:20.452Z,5.30
2018-10-19T07:02:50.696Z,4.27
2018-10-19T07:05:19.567Z,3.97
2018-10-19T07:07:48.605Z,4.90
2018-10-19T07:10:17.629Z,3.77
2018-10-19T07:12:46.575Z,3.77
2018-10-19T07:15:15.969Z,4.57
2018-10-19T07:17:47.139Z,4.50
2018-10-19T07:20:16.355Z,4.37
2018-10-19T07:22:45.909Z,4.20
2018-10-19T07:25:14.903Z,4.10
2018-10-19T07:27:44.033Z,4.43
2018-10-19T07:30:13.346Z,4.20
2018-10-19T07:32:44.359Z,3.43
2018-10-19T07:35:13.339Z,3.70
2018-10-19T07:37:43.817Z,3.93
2018-10-19T07:40:12.734Z,3.77
2018-10-19T07:42:41.645Z,3.50
2018-10-19T07:45:10.500Z,3.30
2018-10-19T07:47:39.570Z,3.77
2018-10-19T07:50:09.046Z,3.33
2018-10-19T07:52:38.596Z,3.53
2018-10-19T07:55:07.869Z,3.47
2018-10-19T07:57:36.933Z,4.57
2018-10-19T08:00:06.347Z,3.70
2018-10-19T08:02:36.410Z,4.73
2018-10-19T08:05:05.672Z,3.70
2018-10-19T08:07:36.584Z,5.10
2018-10-19T08:10:12.164Z,4.43
2018-10-19T08:12:41.032Z,4.67
2018-10-19T08:15:11.319Z,4.60
2018-10-19T08:17:40.361Z,4.83
2018-10-19T08:20:09.932Z,4.60
2018-10-19T08:22:38.717Z,4.50
2018-10-19T08:25:08.620Z,4.53
2018-10-19T08:27:37.518Z,4.30
2018-10-19T08:30:06.474Z,3.90
2018-10-19T08:32:35.390Z,3.90
2018-10-19T08:35:04.455Z,3.93
2018-10-19T08:37:33.932Z,3.93
2018-10-19T08:40:03.086Z,3.63
2018-10-19T08:42:31.865Z,4.00
2018-10-19T08:45:00.888Z,4.27
2018-10-19T08:47:29.729Z,4.00
2018-10-19T08:49:58.616Z,3.90
2018-10-19T08:52:27.497Z,4.45
2018-10-19T08:54:58.590Z,3.70
2018-10-19T08:57:27.721Z,4.33
2018-10-19T08:59:59.720Z,4.20
2018-10-19T09:02:28.806Z,4.03
2018-10-19T09:04:57.807Z,3.83
2018-10-19T09:07:26.663Z,3.47
2018-10-19T09:09:55.560Z,3.50
2018-10-19T09:12:24.727Z,3.97
2018-10-19T09:14:58.157Z,3.60
2018-10-19T09:17:27.070Z,3.60
2018-10-19T09:19:56.219Z,3.63
2018-10-19T09:22:25.712Z,3.20
2018-10-19T09:24:54.762Z,2.80
2018-10-19T09:27:23.707Z,3.10
2018-10-19T09:29:53.810Z,3.15
2018-10-19T09:32:22.939Z,2.77
2018-10-19T09:34:54.207Z,2.73
2018-10-19T09:37:23.157Z,2.90
2018-10-19T09:39:52.208Z,2.05
2018-10-19T09:42:21.074Z,2.17
2018-10-19T09:44:49.986Z,2.50
2018-10-19T09:47:18.948Z,2.63
2018-10-19T09:49:47.903Z,2.30
2018-10-19T09:52:16.823Z,1.93
2018-10-19T09:54:45.762Z,2.00
2018-10-19T09:57:14.769Z,2.20
2018-10-19T09:59:45.608Z,2.60
2018-10-19T10:02:14.480Z,2.47
2018-10-19T10:04:46.167Z,2.43
2018-10-19T10:07:15.341Z,2.20
2018-10-19T10:09:45.450Z,2.70
2018-10-19T10:12:14.479Z,2.60
2018-10-19T10:14:43.600Z,2.43
2018-10-19T10:17:12.555Z,2.33
2018-10-19T10:19:41.484Z,2.30
2018-10-19T10:22:10.428Z,2.80
2018-10-19T10:24:39.656Z,2.43
2018-10-19T10:27:08.602Z,2.37
2018-10-19T10:29:37.618Z,2.50
2018-10-19T10:38:11.067Z,2.93
2018-10-19T10:40:41.084Z,2.97
2018-10-19T10:43:09.867Z,2.83
2018-10-19T10:45:38.728Z,3.10
2018-10-19T10:48:07.631Z,2.73
2018-10-19T10:50:36.536Z,3.30
2018-10-19T10:53:05.826Z,2.80
2018-10-19T10:55:34.854Z,2.83
2018-10-19T10:58:03.956Z,3.20
2018-10-19T11:00:32.778Z,2.70
2018-10-19T11:03:01.716Z,2.90
2018-10-19T11:05:30.607Z,2.63
2018-10-19T11:08:00.527Z,3.30
2018-10-19T11:10:29.409Z,3.40
2018-10-19T11:12:58.484Z,3.03
2018-10-19T11:15:27.488Z,2.60
2018-10-19T11:17:56.390Z,2.60
2018-10-19T11:20:25.285Z,3.00
2018-10-19T11:22:54.272Z,2.77
2018-10-19T11:25:23.191Z,3.40
2018-10-19T11:27:52.152Z,2.83
2018-10-19T11:30:21.016Z,2.43
2018-10-19T11:32:51.994Z,2.63
2018-10-19T11:35:20.862Z,3.20
2018-10-19T11:37:49.810Z,3.10
2018-10-19T11:40:26.620Z,3.63
2018-10-19T11:42:56.225Z,3.00
2018-10-19T11:45:26.435Z,2.90
2018-10-19T11:47:55.356Z,3.03
2018-10-19T11:50:24.261Z,3.67
2018-10-19T11:52:53.137Z,3.03
2018-10-19T11:55:21.993Z,3.00
2018-10-19T11:57:51.590Z,3.00
2018-10-19T12:00:21.233Z,3.30
2018-10-19T12:02:50.285Z,3.30
2018-10-19T12:05:19.414Z,3.23
2018-10-19T12:07:48.263Z,3.07
2018-10-19T12:10:17.287Z,3.27
2018-10-19T12:12:46.092Z,3.13
2018-10-19T12:15:16.497Z,3.10
2018-10-19T12:17:45.703Z,3.07
2018-10-19T12:20:19.248Z,2.80
2018-10-19T12:22:48.103Z,3.03
2018-10-19T12:25:17.618Z,3.23
2018-10-19T12:27:46.462Z,3.00
2018-10-19T12:30:15.322Z,2.80
2018-10-19T12:32:44.285Z,3.17
2018-10-19T12:35:15.214Z,3.40
2018-10-19T12:37:44.023Z,3.60
2018-10-19T12:40:13.266Z,3.40
2018-10-19T12:42:42.206Z,3.10
2018-10-19T12:45:41.851Z,2.87
2018-10-19T12:48:10.717Z,3.37
2018-10-19T12:50:40.044Z,4.20
2018-10-19T12:53:08.885Z,3.30
2018-10-19T12:55:37.866Z,3.07
2018-10-19T12:58:06.698Z,3.70
2018-10-19T13:00:35.559Z,3.20
2018-10-19T13:03:04.535Z,3.20
2018-10-19T13:05:33.392Z,3.67
2018-10-19T13:08:02.352Z,3.40
2018-10-19T13:10:31.223Z,4.00
2018-10-19T13:13:00.203Z,3.30
2018-10-19T13:15:29.007Z,3.63
2018-10-19T13:17:57.908Z,3.50
2018-10-19T13:20:26.771Z,3.47
2018-10-19T13:22:55.681Z,3.43
2018-10-19T13:25:24.551Z,3.17
2018-10-19T13:27:53.411Z,3.47
2018-10-19T13:30:22.269Z,3.90
2018-10-19T13:32:51.125Z,3.70
2018-10-19T13:35:19.989Z,3.30
2018-10-19T13:37:48.846Z,3.67
2018-10-19T13:40:17.723Z,3.10
2018-10-19T13:42:46.660Z,4.03
2018-10-19T13:45:15.548Z,3.40
2018-10-19T13:47:44.317Z,3.43
2018-10-19T13:50:13.180Z,3.53
2018-10-19T13:52:42.050Z,3.70
2018-10-19T13:55:10.918Z,3.47
2018-10-19T13:57:39.806Z,3.20
2018-10-19T14:00:08.665Z,3.40
2018-10-19T14:02:37.684Z,3.13
2018-10-19T14:05:06.689Z,3.23
2018-10-19T14:07:35.523Z,3.37
2018-10-19T14:10:04.452Z,3.20
2018-10-19T14:12:33.493Z,4.40
2018-10-19T14:15:02.445Z,3.53
2018-10-19T14:17:31.337Z,3.87
2018-10-19T14:20:00.530Z,3.60
2018-10-19T14:22:29.370Z,3.00
2018-10-19T14:24:58.315Z,3.30
2018-10-19T14:27:27.307Z,3.10
2018-10-19T14:29:56.291Z,3.47
2018-10-19T14:32:25.159Z,3.63
2018-10-19T14:34:54.084Z,3.50
2018-10-19T14:37:22.945Z,4.33
2018-10-19T14:39:51.804Z,3.77
2018-10-19T14:42:20.722Z,3.10
2018-10-19T14:44:51.043Z,3.07
2018-10-19T14:47:19.937Z,3.17
2018-10-19T14:49:48.821Z,3.00
2018-10-19T14:52:17.727Z,4.27
2018-10-19T14:54:46.615Z,4.70
2018-10-19T14:57:15.551Z,3.73
2018-10-19T14:59:44.383Z,2.97
2018-10-19T15:02:13.326Z,3.23
2018-10-19T15:04:42.409Z,4.17
2018-10-19T15:07:11.313Z,4.50
2018-10-19T15:09:40.404Z,3.07
2018-10-19T15:12:09.590Z,3.40
2018-10-19T15:14:38.603Z,3.60
2018-10-19T15:17:08.532Z,3.80
2018-10-19T15:19:37.457Z,3.00
2018-10-19T15:22:06.374Z,3.30
2018-10-19T15:24:35.275Z,3.00
2018-10-19T15:27:04.192Z,4.20
2018-10-19T15:29:33.124Z,3.97
2018-10-19T15:32:04.908Z,3.40
2018-10-19T15:34:33.792Z,3.57
2018-10-19T15:37:02.649Z,3.40
2018-10-19T15:39:31.517Z,3.40
2018-10-19T15:42:01.416Z,3.80
2018-10-19T15:44:30.287Z,4.30
2018-10-19T15:47:02.006Z,4.40
2018-10-19T15:49:31.391Z,4.10
2018-10-19T15:52:00.331Z,3.77
2018-10-19T15:54:29.208Z,4.17
2018-10-19T15:56:58.224Z,3.27
2018-10-19T15:59:26.993Z,3.03
2018-10-19T16:01:55.950Z,3.93
2018-10-19T16:04:24.806Z,4.60
2018-10-19T16:06:53.686Z,3.10
2018-10-19T16:09:22.576Z,2.87
2018-10-19T16:11:51.461Z,3.67
2018-10-19T16:14:20.379Z,2.77
2018-10-19T16:16:49.264Z,2.90
2018-10-19T16:19:19.181Z,2.77
2018-10-19T16:21:48.071Z,2.87
2018-10-19T16:24:17.967Z,2.97
2018-10-19T16:26:48.912Z,2.77
2018-10-19T16:29:17.808Z,3.10
2018-10-19T16:31:46.718Z,2.80
2018-10-19T16:34:15.579Z,4.17
2018-10-19T16:36:45.509Z,4.13
2018-10-19T16:39:14.422Z,3.63
2018-10-19T16:41:43.299Z,3.57
2018-10-19T16:44:12.169Z,5.00
2018-10-19T16:46:41.081Z,7.33
2018-10-19T16:49:09.942Z,8.63
2018-10-19T16:51:38.877Z,17.40
2018-10-19T16:54:07.914Z,30.90
2018-10-19T16:56:36.781Z,69.20
2018-10-19T16:59:05.837Z,46.43
2018-10-19T17:01:34.748Z,35.90
2018-10-19T17:04:03.644Z,31.40
2018-10-19T17:06:32.535Z,29.00
2018-10-19T17:09:01.466Z,22.03
2018-10-19T17:11:30.316Z,22.30
2018-10-19T17:13:59.197Z,38.60
2018-10-19T17:16:28.136Z,32.67
2018-10-19T17:18:57.058Z,23.40
2018-10-19T17:21:25.926Z,27.23
2018-10-19T17:23:54.952Z,21.80
2018-10-19T17:26:23.830Z,14.03
2018-10-19T17:28:52.748Z,14.40
2018-10-19T17:31:21.618Z,15.40
2018-10-19T17:33:50.578Z,14.17
2018-10-19T17:36:19.543Z,9.63
2018-10-19T17:38:48.409Z,9.40
2018-10-19T17:41:17.366Z,10.93
2018-10-19T17:43:46.253Z,9.23
2018-10-19T17:46:15.344Z,7.53
2018-10-19T17:48:44.253Z,8.30
2018-10-19T17:51:13.297Z,8.87
2018-10-19T17:53:42.147Z,5.47
2018-10-19T17:56:11.074Z,6.10
2018-10-19T17:58:39.963Z,14.53
2018-10-19T18:01:08.852Z,14.30
2018-10-19T18:03:37.747Z,11.27
2018-10-19T18:06:08.589Z,10.67
2018-10-19T18:08:37.503Z,10.30
2018-10-19T18:11:06.533Z,9.87
2018-10-19T18:13:35.405Z,10.20
2018-10-19T18:16:04.735Z,11.27
2018-10-19T18:18:34.627Z,11.33
2018-10-19T18:21:03.614Z,9.80
2018-10-19T18:23:32.577Z,10.10
2018-10-19T18:26:01.397Z,9.37
2018-10-19T18:28:30.289Z,9.50
2018-10-19T18:30:59.148Z,9.67
2018-10-19T18:33:28.104Z,9.30
2018-10-19T18:35:57.007Z,9.80
2018-10-19T18:38:25.965Z,7.70
2018-10-19T18:40:54.878Z,7.17
2018-10-19T18:43:23.701Z,8.03
2018-10-19T18:45:52.598Z,8.20
2018-10-19T18:48:21.601Z,6.87
2018-10-19T18:50:51.236Z,5.13
2018-10-19T18:53:20.233Z,5.40
2018-10-19T18:55:48.974Z,4.97
2018-10-19T18:58:17.874Z,4.43
2018-10-19T19:00:46.720Z,4.03
2018-10-19T19:03:15.645Z,4.13
2018-10-19T19:05:44.490Z,4.03
2018-10-19T19:10:42.541Z,4.37
2018-10-19T19:13:31.585Z,4.43
2018-10-19T19:16:00.838Z,4.00
2018-10-19T19:18:29.685Z,4.10
2018-10-19T19:20:58.553Z,4.13
2018-10-19T19:23:27.501Z,3.90
2018-10-19T19:26:10.345Z,3.93
2018-10-19T19:28:39.147Z,4.10
2018-10-19T19:31:08.098Z,4.20
2018-10-19T19:33:54.413Z,3.77
2018-10-19T19:36:23.356Z,3.70
2018-10-19T19:38:52.278Z,4.03
2018-10-19T19:41:52.269Z,5.73
2018-10-19T19:44:21.207Z,7.90
2018-10-19T19:46:50.244Z,5.80
2018-10-19T19:49:35.893Z,5.20
2018-10-19T19:52:04.871Z,5.07
2018-10-19T19:54:33.836Z,5.37
2018-10-19T19:57:02.713Z,4.80
2018-10-19T19:59:31.830Z,4.43
2018-10-19T20:02:00.724Z,4.63
2018-10-19T20:04:29.671Z,4.90
2018-10-19T20:07:00.285Z,4.50
2018-10-19T20:09:29.140Z,5.10
2018-10-19T20:11:58.051Z,4.63
2018-10-19T20:14:26.906Z,4.60
2018-10-19T20:16:55.812Z,4.40
2018-10-19T20:19:24.674Z,4.07
2018-10-19T20:21:53.666Z,4.63
2018-10-19T20:24:24.212Z,4.87
2018-10-19T20:26:53.128Z,4.53
2018-10-19T20:29:22.026Z,5.00
2018-10-19T20:31:50.923Z,4.57
2018-10-19T20:34:19.781Z,4.63
2018-10-19T20:36:48.639Z,4.60
2018-10-19T20:39:17.609Z,4.20
2018-10-19T20:41:46.458Z,4.93
2018-10-19T20:44:15.406Z,4.30
2018-10-19T20:46:44.337Z,4.20
2018-10-19T20:49:13.202Z,4.40
2018-10-19T20:51:42.162Z,4.10
2018-10-19T20:54:11.109Z,4.00
2018-10-19T20:56:39.872Z,4.27
2018-10-19T20:59:08.981Z,4.40
2018-10-19T21:01:37.761Z,4.60
2018-10-19T21:04:06.868Z,4.40
2018-10-19T21:06:35.740Z,4.27
2018-10-19T21:09:04.880Z,4.17
2018-10-19T21:11:33.831Z,4.27
2018-10-19T21:14:02.710Z,4.13
2018-10-19T21:16:31.669Z,4.20
2018-10-19T21:19:00.469Z,4.37
2018-10-19T21:21:29.330Z,3.93
2018-10-19T21:23:58.244Z,4.33
2018-10-19T21:26:27.265Z,4.37
2018-10-19T21:28:56.183Z,4.50
2018-10-19T21:31:25.139Z,4.10
2018-10-19T21:33:54.032Z,3.73
2018-10-19T21:36:23.127Z,4.50
2018-10-19T21:38:51.909Z,4.03
2018-10-19T21:41:20.797Z,3.93
2018-10-19T21:43:49.886Z,4.37
2018-10-19T21:46:18.797Z,3.90
2018-10-19T21:48:47.656Z,4.07
2018-10-19T21:51:16.508Z,4.00
2018-10-19T21:53:45.439Z,3.73
2018-10-19T21:56:14.371Z,3.87
2018-10-19T21:58:43.185Z,3.90
2018-10-19T22:01:12.218Z,3.53
2018-10-19T22:03:41.006Z,3.90
2018-10-19T22:06:09.921Z,3.97
2018-10-19T22:08:38.864Z,3.77
2018-10-19T22:11:07.709Z,3.90
2018-10-19T22:13:36.582Z,3.77
2018-10-19T22:16:05.833Z,3.63
2018-10-19T22:18:34.704Z,3.50
2018-10-19T22:21:03.587Z,4.00
2018-10-19T22:23:32.494Z,4.00
2018-10-19T22:26:02.399Z,4.00
2018-10-19T22:28:31.250Z,3.50
2018-10-19T22:31:00.233Z,3.90
2018-10-19T22:33:29.053Z,4.07
2018-10-19T22:35:59.049Z,3.80
2018-10-19T22:38:27.898Z,3.70
2018-10-19T22:40:56.863Z,3.40
2018-10-19T22:43:25.776Z,4.00
2018-10-19T22:45:55.143Z,4.00
2018-10-19T22:48:24.066Z,3.70
2018-10-19T22:50:52.949Z,3.53
2018-10-19T22:53:21.869Z,3.60
2018-10-19T22:55:51.140Z,3.90
2018-10-19T22:58:20.235Z,3.60
2018-10-19T23:00:49.450Z,3.67
2018-10-19T23:03:18.337Z,3.47
2018-10-19T23:05:47.240Z,3.87
2018-10-19T23:08:16.223Z,3.87
2018-10-19T23:10:45.092Z,3.47
2018-10-19T23:13:14.036Z,3.63
2018-10-19T23:15:42.933Z,3.33
2018-10-19T23:18:11.790Z,3.63
2018-10-19T23:20:40.717Z,4.03
2018-10-19T23:23:09.649Z,3.30
2018-10-19T23:25:38.493Z,3.40
2018-10-19T23:28:07.515Z,3.60
2018-10-19T23:30:36.490Z,3.30
2018-10-19T23:33:05.370Z,3.83
2018-10-19T23:35:34.372Z,3.50
2018-10-19T23:38:03.490Z,3.40
2018-10-19T23:40:32.603Z,3.20
2018-10-19T23:43:01.478Z,3.17
2018-10-19T23:45:30.440Z,3.07
2018-10-19T23:47:59.345Z,3.30
2018-10-19T23:50:28.345Z,3.50
2018-10-19T23:52:57.248Z,3.57
2018-10-19T23:55:26.213Z,3.13
2018-10-19T23:57:55.078Z,2.83
